sensor_id;sensor_type;location;lat;lon;timestamp;P1;durP1;ratioP1;P2;durP2;ratioP2
11431;SDS011;5772;50.940;6.782;2022-12-29T15:10:45;34.13;;;32.63;;
11431;SDS011;5772;50.940;6.782;2022-12-29T15:13:15;29.80;;;27.60;;
11431;SDS011;5772;50.940;6.782;2022-12-29T15:15:42;25.93;;;24.93;;
11431;SDS011;5772;50.940;6.782;2022-12-29T15:18:15;24.60;;;23.50;;
11431;SDS011;5772;50.940;6.782;2022-12-29T15:20:49;23.63;;;22.27;;
11431;SDS011;5772;50.940;6.782;2022-12-29T15:23:16;22.20;;;21.30;;
11431;SDS011;5772;50.940;6.782;2022-12-29T15:25:47;21.97;;;21.07;;
11431;SDS011;5772;50.940;6.782;2022-12-29T15:28:15;22.20;;;21.20;;
11431;SDS011;5772;50.940;6.782;2022-12-29T15:30:49;21.60;;;20.70;;
11431;SDS011;5772;50.940;6.782;2022-12-29T15:33:17;21.87;;;20.67;;
11431;SDS011;5772;50.940;6.782;2022-12-29T15:35:42;21.73;;;20.83;;
11431;SDS011;5772;50.940;6.782;2022-12-29T15:38:12;20.87;;;20.07;;
11431;SDS011;5772;50.940;6.782;2022-12-29T15:40:39;22.07;;;20.87;;
11431;SDS011;5772;50.940;6.782;2022-12-29T15:43:15;20.20;;;19.40;;
11431;SDS011;5772;50.940;6.782;2022-12-29T15:45:48;22.60;;;21.40;;
11431;SDS011;5772;50.940;6.782;2022-12-29T15:48:16;21.60;;;20.60;;
11431;SDS011;5772;50.940;6.782;2022-12-29T15:50:43;22.07;;;20.80;;
11431;SDS011;5772;50.940;6.782;2022-12-29T15:53:09;20.20;;;19.27;;
11431;SDS011;5772;50.940;6.782;2022-12-29T15:55:36;20.03;;;19.23;;
11431;SDS011;5772;50.940;6.782;2022-12-29T15:58:04;21.20;;;20.07;;
11431;SDS011;5772;50.940;6.782;2022-12-29T16:00:33;21.07;;;20.13;;
11431;SDS011;5772;50.940;6.782;2022-12-29T16:02:59;22.53;;;21.30;;
11431;SDS011;5772;50.940;6.782;2022-12-29T16:05:31;24.00;;;22.33;;
11431;SDS011;5772;50.940;6.782;2022-12-29T16:07:57;23.50;;;22.57;;
11431;SDS011;5772;50.940;6.782;2022-12-29T16:10:28;23.50;;;22.23;;
11431;SDS011;5772;50.940;6.782;2022-12-29T16:13:01;24.40;;;23.20;;
11431;SDS011;5772;50.940;6.782;2022-12-29T16:15:29;24.30;;;23.03;;
11431;SDS011;5772;50.940;6.782;2022-12-29T16:17:56;23.77;;;22.63;;
11431;SDS011;5772;50.940;6.782;2022-12-29T16:20:23;25.63;;;24.37;;
11431;SDS011;5772;50.940;6.782;2022-12-29T16:22:51;24.23;;;23.03;;
11431;SDS011;5772;50.940;6.782;2022-12-29T16:25:19;24.37;;;23.37;;
11431;SDS011;5772;50.940;6.782;2022-12-29T16:27:47;23.63;;;22.40;;
11431;SDS011;5772;50.940;6.782;2022-12-29T16:30:16;23.07;;;22.10;;
11431;SDS011;5772;50.940;6.782;2022-12-29T16:32:46;25.20;;;24.03;;
11431;SDS011;5772;50.940;6.782;2022-12-29T16:35:13;23.17;;;22.17;;
11431;SDS011;5772;50.940;6.782;2022-12-29T16:37:42;23.83;;;22.73;;
11431;SDS011;5772;50.940;6.782;2022-12-29T16:40:23;22.00;;;21.00;;
11431;SDS011;5772;50.940;6.782;2022-12-29T16:42:50;20.97;;;20.07;;
11431;SDS011;5772;50.940;6.782;2022-12-29T16:48:21;19.17;;;18.37;;
11431;SDS011;5772;50.940;6.782;2022-12-29T16:50:48;18.90;;;17.90;;
11431;SDS011;5772;50.940;6.782;2022-12-29T16:53:18;20.27;;;19.20;;
11431;SDS011;5772;50.940;6.782;2022-12-29T16:55:46;18.30;;;17.20;;
11431;SDS011;5772;50.940;6.782;2022-12-29T16:58:12;18.20;;;17.37;;
11431;SDS011;5772;50.940;6.782;2022-12-29T17:00:44;19.33;;;18.33;;
11431;SDS011;5772;50.940;6.782;2022-12-29T17:03:10;20.07;;;18.70;;
11431;SDS011;5772;50.940;6.782;2022-12-29T17:05:37;19.60;;;18.63;;
11431;SDS011;5772;50.940;6.782;2022-12-29T17:08:03;19.53;;;18.63;;
11431;SDS011;5772;50.940;6.782;2022-12-29T17:10:37;19.30;;;18.30;;
11431;SDS011;5772;50.940;6.782;2022-12-29T17:13:02;20.53;;;19.43;;
11431;SDS011;5772;50.940;6.782;2022-12-29T17:15:28;18.80;;;17.70;;
11431;SDS011;5772;50.940;6.782;2022-12-29T17:17:55;20.13;;;19.03;;
11431;SDS011;5772;50.940;6.782;2022-12-29T17:20:21;20.87;;;19.30;;
11431;SDS011;5772;50.940;6.782;2022-12-29T17:22:49;18.70;;;17.70;;
11431;SDS011;5772;50.940;6.782;2022-12-29T17:25:17;19.30;;;18.30;;
11431;SDS011;5772;50.940;6.782;2022-12-29T17:27:44;19.93;;;19.00;;
11431;SDS011;5772;50.940;6.782;2022-12-29T17:30:12;20.73;;;19.43;;
11431;SDS011;5772;50.940;6.782;2022-12-29T17:32:39;20.27;;;19.17;;
11431;SDS011;5772;50.940;6.782;2022-12-29T17:35:08;21.80;;;20.80;;
11431;SDS011;5772;50.940;6.782;2022-12-29T17:37:38;22.07;;;21.03;;
11431;SDS011;5772;50.940;6.782;2022-12-29T17:40:05;21.07;;;19.77;;
11431;SDS011;5772;50.940;6.782;2022-12-29T17:42:32;19.50;;;18.57;;
11431;SDS011;5772;50.940;6.782;2022-12-29T17:45:00;19.30;;;18.17;;
11431;SDS011;5772;50.940;6.782;2022-12-29T17:47:26;19.43;;;18.53;;
11431;SDS011;5772;50.940;6.782;2022-12-29T17:49:51;17.97;;;17.07;;
11431;SDS011;5772;50.940;6.782;2022-12-29T17:52:16;18.40;;;17.43;;
11431;SDS011;5772;50.940;6.782;2022-12-29T17:54:44;19.53;;;18.30;;
11431;SDS011;5772;50.940;6.782;2022-12-29T17:57:12;18.17;;;17.17;;
11431;SDS011;5772;50.940;6.782;2022-12-29T17:59:38;18.23;;;17.43;;
11431;SDS011;5772;50.940;6.782;2022-12-29T18:02:08;18.43;;;17.43;;
11431;SDS011;5772;50.940;6.782;2022-12-29T18:04:43;18.83;;;17.73;;
11431;SDS011;5772;50.940;6.782;2022-12-29T18:07:09;19.03;;;17.97;;
11431;SDS011;5772;50.940;6.782;2022-12-29T18:09:35;19.47;;;18.50;;
11431;SDS011;5772;50.940;6.782;2022-12-29T18:12:00;19.33;;;18.53;;
11431;SDS011;5772;50.940;6.782;2022-12-29T18:14:27;22.17;;;20.40;;
11431;SDS011;5772;50.940;6.782;2022-12-29T18:16:52;22.73;;;20.87;;
11431;SDS011;5772;50.940;6.782;2022-12-29T18:19:18;25.17;;;23.40;;
11431;SDS011;5772;50.940;6.782;2022-12-29T18:21:43;22.70;;;21.70;;
11431;SDS011;5772;50.940;6.782;2022-12-29T18:24:09;24.57;;;23.37;;
11431;SDS011;5772;50.940;6.782;2022-12-29T18:26:37;24.40;;;22.60;;
11431;SDS011;5772;50.940;6.782;2022-12-29T18:29:03;21.40;;;20.50;;
11431;SDS011;5772;50.940;6.782;2022-12-29T18:31:30;21.93;;;20.73;;
11431;SDS011;5772;50.940;6.782;2022-12-29T18:33:57;21.23;;;20.10;;
11431;SDS011;5772;50.940;6.782;2022-12-29T18:36:24;21.50;;;20.20;;
11431;SDS011;5772;50.940;6.782;2022-12-29T18:38:50;20.77;;;19.07;;
11431;SDS011;5772;50.940;6.782;2022-12-29T18:41:16;20.97;;;19.37;;
11431;SDS011;5772;50.940;6.782;2022-12-29T18:43:43;21.37;;;20.30;;
11431;SDS011;5772;50.940;6.782;2022-12-29T18:46:08;20.63;;;19.47;;
11431;SDS011;5772;50.940;6.782;2022-12-29T18:48:35;21.23;;;19.87;;
11431;SDS011;5772;50.940;6.782;2022-12-29T18:51:00;21.90;;;20.80;;
11431;SDS011;5772;50.940;6.782;2022-12-29T18:53:25;20.80;;;19.80;;
11431;SDS011;5772;50.940;6.782;2022-12-29T18:55:51;20.57;;;19.57;;
11431;SDS011;5772;50.940;6.782;2022-12-29T18:58:18;20.73;;;19.57;;
11431;SDS011;5772;50.940;6.782;2022-12-29T19:00:43;21.73;;;20.20;;
11431;SDS011;5772;50.940;6.782;2022-12-29T19:03:09;20.40;;;19.47;;
11431;SDS011;5772;50.940;6.782;2022-12-29T19:05:37;20.07;;;19.07;;
11431;SDS011;5772;50.940;6.782;2022-12-29T19:08:04;20.73;;;19.60;;
11431;SDS011;5772;50.940;6.782;2022-12-29T19:10:30;21.70;;;20.13;;
11431;SDS011;5772;50.940;6.782;2022-12-29T19:12:55;20.67;;;19.43;;
11431;SDS011;5772;50.940;6.782;2022-12-29T19:15:22;20.00;;;18.80;;
11431;SDS011;5772;50.940;6.782;2022-12-29T19:17:48;21.73;;;20.20;;
11431;SDS011;5772;50.940;6.782;2022-12-29T19:20:20;20.23;;;19.03;;
11431;SDS011;5772;50.940;6.782;2022-12-29T19:22:51;20.33;;;19.07;;
11431;SDS011;5772;50.940;6.782;2022-12-29T19:25:17;19.90;;;18.47;;
11431;SDS011;5772;50.940;6.782;2022-12-29T19:27:42;20.93;;;19.50;;
11431;SDS011;5772;50.940;6.782;2022-12-29T19:30:08;20.03;;;19.13;;
11431;SDS011;5772;50.940;6.782;2022-12-29T19:32:36;20.87;;;19.87;;
11431;SDS011;5772;50.940;6.782;2022-12-29T19:35:01;22.47;;;20.50;;
11431;SDS011;5772;50.940;6.782;2022-12-29T19:37:27;20.53;;;19.40;;
11431;SDS011;5772;50.940;6.782;2022-12-29T19:39:53;23.73;;;22.57;;
11431;SDS011;5772;50.940;6.782;2022-12-29T19:42:19;21.50;;;20.40;;
11431;SDS011;5772;50.940;6.782;2022-12-29T19:44:44;21.13;;;20.00;;
11431;SDS011;5772;50.940;6.782;2022-12-29T19:47:09;21.77;;;20.60;;
11431;SDS011;5772;50.940;6.782;2022-12-29T19:49:35;24.03;;;22.33;;
11431;SDS011;5772;50.940;6.782;2022-12-29T19:52:00;21.67;;;20.50;;
11431;SDS011;5772;50.940;6.782;2022-12-29T19:54:26;22.57;;;21.20;;
11431;SDS011;5772;50.940;6.782;2022-12-29T19:56:52;22.17;;;21.13;;
11431;SDS011;5772;50.940;6.782;2022-12-29T19:59:18;22.83;;;21.67;;
11431;SDS011;5772;50.940;6.782;2022-12-29T20:01:43;23.30;;;22.20;;
11431;SDS011;5772;50.940;6.782;2022-12-29T20:04:08;22.80;;;21.90;;
11431;SDS011;5772;50.940;6.782;2022-12-29T20:06:34;23.50;;;22.27;;
11431;SDS011;5772;50.940;6.782;2022-12-29T20:09:00;23.77;;;22.57;;
11431;SDS011;5772;50.940;6.782;2022-12-29T20:11:25;24.60;;;23.60;;
11431;SDS011;5772;50.940;6.782;2022-12-29T20:13:52;23.70;;;22.43;;
11431;SDS011;5772;50.940;6.782;2022-12-29T20:16:17;23.33;;;22.23;;
11431;SDS011;5772;50.940;6.782;2022-12-29T20:18:43;24.23;;;23.07;;
11431;SDS011;5772;50.940;6.782;2022-12-29T20:21:10;23.57;;;22.47;;
11431;SDS011;5772;50.940;6.782;2022-12-29T20:23:37;22.90;;;21.57;;
11431;SDS011;5772;50.940;6.782;2022-12-29T20:26:04;22.70;;;21.37;;
11431;SDS011;5772;50.940;6.782;2022-12-29T20:28:29;22.43;;;21.43;;
11431;SDS011;5772;50.940;6.782;2022-12-29T20:30:58;22.40;;;21.40;;
11431;SDS011;5772;50.940;6.782;2022-12-29T20:33:25;23.80;;;22.50;;
11431;SDS011;5772;50.940;6.782;2022-12-29T20:35:51;24.00;;;22.90;;
11431;SDS011;5772;50.940;6.782;2022-12-29T20:38:17;25.30;;;24.00;;
11431;SDS011;5772;50.940;6.782;2022-12-29T20:40:42;23.47;;;22.17;;
11431;SDS011;5772;50.940;6.782;2022-12-29T20:43:08;23.03;;;21.67;;
11431;SDS011;5772;50.940;6.782;2022-12-29T20:45:33;23.93;;;22.63;;
11431;SDS011;5772;50.940;6.782;2022-12-29T20:48:00;23.37;;;22.23;;
11431;SDS011;5772;50.940;6.782;2022-12-29T20:50:25;24.87;;;23.13;;
11431;SDS011;5772;50.940;6.782;2022-12-29T20:52:50;23.90;;;22.37;;
11431;SDS011;5772;50.940;6.782;2022-12-29T20:55:16;24.83;;;23.00;;
11431;SDS011;5772;50.940;6.782;2022-12-29T20:57:41;23.53;;;22.23;;
11431;SDS011;5772;50.940;6.782;2022-12-29T21:00:07;23.90;;;22.70;;
11431;SDS011;5772;50.940;6.782;2022-12-29T21:02:34;22.50;;;21.43;;
11431;SDS011;5772;50.940;6.782;2022-12-29T21:05:00;24.50;;;22.87;;
11431;SDS011;5772;50.940;6.782;2022-12-29T21:07:26;25.47;;;24.10;;
11431;SDS011;5772;50.940;6.782;2022-12-29T21:09:51;25.13;;;23.93;;
11431;SDS011;5772;50.940;6.782;2022-12-29T21:12:17;24.63;;;22.97;;
11431;SDS011;5772;50.940;6.782;2022-12-29T21:14:42;25.30;;;24.00;;
11431;SDS011;5772;50.940;6.782;2022-12-29T21:17:07;24.50;;;23.00;;
11431;SDS011;5772;50.940;6.782;2022-12-29T21:19:33;27.20;;;25.87;;
11431;SDS011;5772;50.940;6.782;2022-12-29T21:24:27;23.63;;;22.37;;
11431;SDS011;5772;50.940;6.782;2022-12-29T21:26:52;24.27;;;22.87;;
11431;SDS011;5772;50.940;6.782;2022-12-29T21:29:17;24.57;;;23.27;;
11431;SDS011;5772;50.940;6.782;2022-12-29T21:31:43;22.97;;;22.00;;
11431;SDS011;5772;50.940;6.782;2022-12-29T21:34:08;23.57;;;22.43;;
11431;SDS011;5772;50.940;6.782;2022-12-29T21:36:33;23.20;;;21.77;;
11431;SDS011;5772;50.940;6.782;2022-12-29T21:38:59;22.70;;;21.70;;
11431;SDS011;5772;50.940;6.782;2022-12-29T21:41:26;23.53;;;22.43;;
11431;SDS011;5772;50.940;6.782;2022-12-29T21:43:51;24.23;;;22.63;;
11431;SDS011;5772;50.940;6.782;2022-12-29T21:46:16;23.77;;;22.27;;
11431;SDS011;5772;50.940;6.782;2022-12-29T21:48:42;22.57;;;21.47;;
11431;SDS011;5772;50.940;6.782;2022-12-29T21:51:08;24.07;;;22.87;;
11431;SDS011;5772;50.940;6.782;2022-12-29T21:53:36;22.97;;;22.03;;
11431;SDS011;5772;50.940;6.782;2022-12-29T21:56:03;23.37;;;22.17;;
11431;SDS011;5772;50.940;6.782;2022-12-29T21:58:31;23.80;;;22.50;;
11431;SDS011;5772;50.940;6.782;2022-12-29T22:00:56;26.33;;;24.67;;
11431;SDS011;5772;50.940;6.782;2022-12-29T22:03:22;24.10;;;22.90;;
11431;SDS011;5772;50.940;6.782;2022-12-29T22:05:47;23.60;;;22.57;;
11431;SDS011;5772;50.940;6.782;2022-12-29T22:08:12;24.20;;;23.10;;
11431;SDS011;5772;50.940;6.782;2022-12-29T22:10:38;23.77;;;22.50;;
11431;SDS011;5772;50.940;6.782;2022-12-29T22:13:04;24.43;;;23.23;;
11431;SDS011;5772;50.940;6.782;2022-12-29T22:15:31;23.40;;;22.50;;
11431;SDS011;5772;50.940;6.782;2022-12-29T22:17:58;23.93;;;22.83;;
11431;SDS011;5772;50.940;6.782;2022-12-29T22:20:24;24.10;;;22.70;;
11431;SDS011;5772;50.940;6.782;2022-12-29T22:22:50;25.67;;;23.57;;
11431;SDS011;5772;50.940;6.782;2022-12-29T22:25:16;23.70;;;22.43;;
11431;SDS011;5772;50.940;6.782;2022-12-29T22:27:42;26.00;;;24.53;;
11431;SDS011;5772;50.940;6.782;2022-12-29T22:30:08;24.73;;;23.27;;
11431;SDS011;5772;50.940;6.782;2022-12-29T22:32:35;25.50;;;24.07;;
11431;SDS011;5772;50.940;6.782;2022-12-29T22:35:00;24.47;;;23.20;;
11431;SDS011;5772;50.940;6.782;2022-12-29T22:37:26;25.13;;;24.10;;
11431;SDS011;5772;50.940;6.782;2022-12-29T22:39:51;24.83;;;23.40;;
11431;SDS011;5772;50.940;6.782;2022-12-29T22:42:17;23.30;;;22.20;;
11431;SDS011;5772;50.940;6.782;2022-12-29T22:44:42;23.33;;;22.03;;
11431;SDS011;5772;50.940;6.782;2022-12-29T22:47:08;24.20;;;22.50;;
11431;SDS011;5772;50.940;6.782;2022-12-29T22:49:35;23.77;;;22.63;;
11431;SDS011;5772;50.940;6.782;2022-12-29T22:52:00;24.93;;;23.17;;
11431;SDS011;5772;50.940;6.782;2022-12-29T22:54:29;23.47;;;22.17;;
11431;SDS011;5772;50.940;6.782;2022-12-29T22:56:55;22.30;;;21.40;;
11431;SDS011;5772;50.940;6.782;2022-12-29T22:59:20;24.17;;;23.00;;
11431;SDS011;5772;50.940;6.782;2022-12-29T23:01:46;25.07;;;23.23;;
11431;SDS011;5772;50.940;6.782;2022-12-29T23:04:11;24.47;;;22.73;;
11431;SDS011;5772;50.940;6.782;2022-12-29T23:06:39;24.07;;;22.77;;
